createdAt,value
2022-11-19T00:01:33.743Z,100749.76
2022-11-19T00:04:01.549Z,100748.48
2022-11-19T00:06:29.525Z,100743.28
2022-11-19T00:08:57.165Z,100748.35
2022-11-19T00:11:56.088Z,100742.66
2022-11-19T00:14:24.962Z,100739.20
2022-11-19T00:16:52.649Z,100738.37
2022-11-19T00:19:20.649Z,100733.96
2022-11-19T00:21:49.863Z,100738.37
2022-11-19T00:24:17.882Z,100740.11
2022-11-19T00:26:45.760Z,100738.18
2022-11-19T00:29:17.860Z,100739.88
2022-11-19T00:31:45.767Z,100741.13
2022-11-19T00:34:13.507Z,100738.99
2022-11-19T00:36:41.149Z,100736.61
2022-11-19T00:39:08.919Z,100742.16
2022-11-19T00:41:36.575Z,100746.45
2022-11-19T00:44:04.219Z,100746.32
2022-11-19T00:46:33.720Z,100748.41
2022-11-19T00:49:01.557Z,100751.32
2022-11-19T00:51:31.544Z,100738.54
2022-11-19T00:53:59.369Z,100741.58
2022-11-19T00:56:29.008Z,100747.47
2022-11-19T00:58:57.021Z,100738.93
2022-11-19T01:01:26.717Z,100744.95
2022-11-19T01:03:54.940Z,100746.06
2022-11-19T01:06:25.663Z,100747.01
2022-11-19T01:08:54.422Z,100748.58
2022-11-19T01:11:26.442Z,100748.58
2022-11-19T01:13:54.683Z,100752.08
2022-11-19T01:16:26.377Z,100760.61
2022-11-19T01:18:54.617Z,100757.44
2022-11-19T01:21:24.747Z,100753.48
2022-11-19T01:23:52.565Z,100750.18
2022-11-19T01:26:20.570Z,100745.24
2022-11-19T01:28:48.888Z,100746.06
2022-11-19T01:31:21.279Z,100741.94
2022-11-19T01:33:49.334Z,100751.42
2022-11-19T01:36:21.936Z,100747.01
2022-11-19T01:38:52.005Z,100745.21
2022-11-19T01:41:30.121Z,100740.96
2022-11-19T01:44:01.357Z,100745.96
2022-11-19T01:46:31.585Z,100751.78
2022-11-19T01:49:20.140Z,100753.52
2022-11-19T01:52:01.552Z,100756.03
2022-11-19T01:54:35.696Z,100754.43
2022-11-19T01:57:08.163Z,100752.41
2022-11-19T01:59:36.179Z,100761.27
2022-11-19T02:02:03.849Z,100771.04
2022-11-19T02:04:32.623Z,100772.32
2022-11-19T02:07:00.414Z,100761.85
2022-11-19T02:09:29.160Z,100772.45
2022-11-19T02:12:34.429Z,100774.48
2022-11-19T02:15:17.313Z,100778.14
2022-11-19T02:18:12.809Z,100771.99
2022-11-19T02:20:49.462Z,100775.16
2022-11-19T02:23:46.510Z,100771.83
2022-11-19T02:26:26.527Z,100774.21
2022-11-19T02:29:07.353Z,100783.70
2022-11-19T02:31:48.716Z,100781.02
2022-11-19T02:34:39.440Z,100773.95
2022-11-19T02:37:14.995Z,100768.39
2022-11-19T02:39:51.126Z,100771.89
2022-11-19T02:42:44.270Z,100772.22
2022-11-19T02:45:18.046Z,100772.55
2022-11-19T02:47:54.223Z,100774.48
2022-11-19T02:50:27.810Z,100776.05
2022-11-19T02:52:55.836Z,100776.37
2022-11-19T02:55:24.819Z,100780.66
2022-11-19T02:58:04.677Z,100775.30
2022-11-19T03:01:02.970Z,100786.41
2022-11-19T03:03:50.674Z,100783.44
2022-11-19T03:06:28.312Z,100785.20
2022-11-19T03:08:56.035Z,100776.21
2022-11-19T03:11:27.692Z,100778.10
2022-11-19T03:14:26.192Z,100778.40
2022-11-19T03:17:07.233Z,100778.27
2022-11-19T03:19:40.401Z,100777.52
2022-11-19T03:22:25.970Z,100781.93
2022-11-19T03:25:01.661Z,100780.66
2022-11-19T03:27:37.506Z,100780.98
2022-11-19T03:30:06.103Z,100787.00
2022-11-19T03:32:41.776Z,100791.74
2022-11-19T03:35:14.985Z,100790.17
2022-11-19T03:37:45.454Z,100791.28
2022-11-19T03:40:16.113Z,100783.56
2022-11-19T03:42:45.681Z,100788.44
2022-11-19T03:45:17.718Z,100778.50
2022-11-19T03:47:49.060Z,100777.22
2022-11-19T03:50:36.404Z,100776.27
2022-11-19T03:53:04.714Z,100770.95
2022-11-19T03:55:36.511Z,100789.45
2022-11-19T03:58:08.932Z,100787.52
2022-11-19T04:00:36.592Z,100787.06
2022-11-19T04:03:05.510Z,100790.70
2022-11-19T04:05:33.211Z,100787.85
2022-11-19T04:08:00.905Z,100782.16
2022-11-19T04:10:28.539Z,100787.85
2022-11-19T04:12:56.265Z,100783.77
2022-11-19T04:15:24.054Z,100793.41
2022-11-19T04:17:51.652Z,100788.96
2022-11-19T04:20:19.460Z,100785.17
2022-11-19T04:22:47.165Z,100789.29
2022-11-19T04:25:14.822Z,100784.88
2022-11-19T04:27:42.684Z,100778.40
2022-11-19T04:30:10.990Z,100787.85
2022-11-19T04:32:38.610Z,100777.26
2022-11-19T04:35:06.740Z,100778.20
2022-11-19T04:37:34.455Z,100779.94
2022-11-19T04:40:02.177Z,100769.63
2022-11-19T04:42:29.842Z,100773.43
2022-11-19T04:44:57.521Z,100777.19
2022-11-19T04:47:25.162Z,100784.65
2022-11-19T04:49:52.811Z,100783.83
2022-11-19T04:52:20.448Z,100786.80
2022-11-19T04:54:48.139Z,100793.31
2022-11-19T04:57:16.024Z,100780.95
2022-11-19T04:59:43.943Z,100781.90
2022-11-19T05:02:11.582Z,100781.21
2022-11-19T05:04:39.186Z,100784.88
2022-11-19T05:07:07.026Z,100785.33
2022-11-19T05:09:34.674Z,100794.69
2022-11-19T05:12:02.400Z,100791.52
2022-11-19T05:14:30.649Z,100800.24
2022-11-19T05:16:58.546Z,100807.02
2022-11-19T05:19:26.147Z,100796.45
2022-11-19T05:21:53.808Z,100806.88
2022-11-19T05:24:21.418Z,100792.98
2022-11-19T05:26:49.072Z,100794.09
2022-11-19T05:29:16.904Z,100792.82
2022-11-19T05:31:44.800Z,100795.21
2022-11-19T05:34:12.403Z,100794.42
2022-11-19T05:36:40.080Z,100788.57
2022-11-19T05:39:07.743Z,100791.74
2022-11-19T05:41:35.442Z,100790.04
2022-11-19T05:44:03.107Z,100787.98
2022-11-19T05:46:30.791Z,100791.61
2022-11-19T05:48:58.496Z,100792.43
2022-11-19T05:51:26.187Z,100790.70
2022-11-19T05:53:53.892Z,100785.76
2022-11-19T05:56:21.608Z,100788.63
2022-11-19T05:58:49.563Z,100791.48
2022-11-19T06:01:17.217Z,100794.78
2022-11-19T06:03:44.908Z,100794.45
2022-11-19T06:06:12.510Z,100795.11
2022-11-19T06:08:40.170Z,100790.34
2022-11-19T06:11:07.834Z,100786.70
2022-11-19T06:13:35.512Z,100794.59
2022-11-19T06:16:03.192Z,100795.08
2022-11-19T06:18:30.848Z,100793.64
2022-11-19T06:20:58.524Z,100810.87
2022-11-19T06:23:26.237Z,100805.31
2022-11-19T06:25:55.660Z,100810.48
2022-11-19T06:28:23.403Z,100811.27
2022-11-19T06:30:51.049Z,100811.55
2022-11-19T06:33:18.728Z,100815.19
2022-11-19T06:35:46.307Z,100818.85
2022-11-19T06:38:14.098Z,100815.80
2022-11-19T06:40:41.735Z,100818.78
2022-11-19T06:43:09.363Z,100824.93
2022-11-19T06:45:37.054Z,100829.84
2022-11-19T06:48:05.343Z,100829.64
2022-11-19T06:50:33.026Z,100838.30
2022-11-19T06:53:00.612Z,100835.59
2022-11-19T06:55:28.680Z,100843.18
2022-11-19T06:57:56.498Z,100842.30
2022-11-19T07:00:24.388Z,100847.49
2022-11-19T07:02:52.536Z,100850.54
2022-11-19T07:05:20.263Z,100856.91
2022-11-19T07:07:48.014Z,100864.50
2022-11-19T07:10:16.066Z,100868.49
2022-11-19T07:12:43.752Z,100866.10
2022-11-19T07:15:12.040Z,100873.03
2022-11-19T07:17:39.751Z,100884.87
2022-11-19T07:20:08.123Z,100891.84
2022-11-19T07:22:35.736Z,100893.08
2022-11-19T07:25:03.402Z,100892.30
2022-11-19T07:27:31.014Z,100894.23
2022-11-19T07:29:58.624Z,100893.90
2022-11-19T07:32:26.259Z,100892.75
2022-11-19T07:34:53.953Z,100900.66
2022-11-19T07:37:21.640Z,100897.33
2022-11-19T07:39:49.251Z,100894.95
2022-11-19T07:42:35.502Z,100899.98
2022-11-19T07:45:04.173Z,100906.26
2022-11-19T07:47:31.826Z,100908.32
2022-11-19T07:49:59.452Z,100916.39
2022-11-19T07:52:27.078Z,100926.50
2022-11-19T07:54:54.715Z,100920.02
2022-11-19T07:57:27.212Z,100921.82
2022-11-19T07:59:57.724Z,100917.93
2022-11-19T08:02:25.457Z,100924.47
2022-11-19T08:04:53.147Z,100924.99
2022-11-19T08:07:20.886Z,100923.46
2022-11-19T08:09:48.651Z,100914.79
2022-11-19T08:12:16.390Z,100914.34
2022-11-19T08:14:44.115Z,100921.82
2022-11-19T08:17:30.069Z,100918.81
2022-11-19T08:19:57.817Z,100915.97
2022-11-19T08:22:25.456Z,100915.80
2022-11-19T08:24:53.096Z,100924.38
2022-11-19T08:27:20.828Z,100920.29
2022-11-19T08:29:48.460Z,100928.85
2022-11-19T08:32:16.220Z,100928.27
2022-11-19T08:34:43.853Z,100912.77
2022-11-19T08:37:14.624Z,100918.13
2022-11-19T08:39:42.259Z,100923.33
2022-11-19T08:42:29.504Z,100929.02
2022-11-19T08:44:57.319Z,100926.86
2022-11-19T08:47:25.097Z,100930.81
2022-11-19T08:49:52.798Z,100930.52
2022-11-19T08:52:20.449Z,100928.85
2022-11-19T08:54:48.108Z,100936.18
2022-11-19T08:57:15.704Z,100933.82
2022-11-19T08:59:43.361Z,100943.21
2022-11-19T09:02:12.129Z,100941.64
2022-11-19T09:04:39.965Z,100941.97
2022-11-19T09:07:07.694Z,100929.02
2022-11-19T09:09:35.328Z,100933.46
2022-11-19T09:12:02.970Z,100930.16
2022-11-19T09:14:30.664Z,100932.22
2022-11-19T09:16:58.357Z,100931.11
2022-11-19T09:19:26.020Z,100935.23
2022-11-19T09:21:53.829Z,100932.71
2022-11-19T09:24:21.948Z,100929.41
2022-11-19T09:26:52.855Z,100930.16
2022-11-19T09:29:20.973Z,100936.34
2022-11-19T09:31:48.667Z,100942.36
2022-11-19T09:34:16.423Z,100937.45
2022-11-19T09:36:44.088Z,100940.30
2022-11-19T09:39:12.368Z,100942.33
2022-11-19T09:41:56.411Z,100948.48
2022-11-19T09:45:05.100Z,100945.95
2022-11-19T09:48:00.824Z,100946.12
2022-11-19T09:50:35.261Z,100946.31
2022-11-19T09:53:17.892Z,100945.20
2022-11-19T09:55:48.313Z,100938.40
2022-11-19T09:58:39.598Z,100939.84
2022-11-19T10:01:07.725Z,100937.75
2022-11-19T10:03:35.419Z,100949.03
2022-11-19T10:06:12.081Z,100948.38
2022-11-19T10:08:51.686Z,100943.14
2022-11-19T10:11:56.757Z,100942.29
2022-11-19T10:14:48.829Z,100949.26
2022-11-19T10:17:37.431Z,100932.52
2022-11-19T10:20:28.433Z,100932.71
2022-11-19T10:23:18.938Z,100929.28
2022-11-19T10:25:49.067Z,100918.45
2022-11-19T10:28:24.021Z,100923.00
2022-11-19T10:30:56.429Z,100923.62
2022-11-19T10:33:30.010Z,100920.61
2022-11-19T10:36:51.085Z,100912.11
2022-11-19T10:39:28.842Z,100907.23
2022-11-19T10:41:59.307Z,100900.27
2022-11-19T10:44:47.166Z,100897.13
2022-11-19T10:47:41.129Z,100906.35
2022-11-19T10:50:16.259Z,100901.65
2022-11-19T10:52:48.395Z,100904.72
2022-11-19T10:55:37.195Z,100894.39
2022-11-19T10:58:20.095Z,100896.77
2022-11-19T11:00:48.572Z,100896.64
2022-11-19T11:03:29.993Z,100887.16
2022-11-19T11:06:05.499Z,100880.33
2022-11-19T11:08:52.737Z,100882.91
2022-11-19T11:11:59.053Z,100885.98
2022-11-19T11:14:45.731Z,100876.50
2022-11-19T11:17:33.460Z,100880.66
2022-11-19T11:20:08.163Z,100879.41
2022-11-19T11:22:37.423Z,100875.45
2022-11-19T11:25:14.128Z,100880.06
2022-11-19T11:27:41.751Z,100880.69
2022-11-19T11:30:15.339Z,100876.73
2022-11-19T11:32:43.762Z,100873.23
2022-11-19T11:35:37.059Z,100874.63
2022-11-19T11:38:06.221Z,100878.30
2022-11-19T11:40:34.062Z,100876.70
2022-11-19T11:43:01.966Z,100883.17
2022-11-19T11:45:29.534Z,100878.23
2022-11-19T11:47:58.725Z,100876.30
2022-11-19T11:50:29.136Z,100872.02
2022-11-19T11:52:58.892Z,100867.70
2022-11-19T11:55:26.448Z,100861.82
2022-11-19T11:57:58.118Z,100860.05
2022-11-19T12:00:31.588Z,100865.28
2022-11-19T12:03:17.316Z,100857.66
2022-11-19T12:05:47.556Z,100855.84
2022-11-19T12:08:27.277Z,100848.97
2022-11-19T12:10:54.954Z,100852.76
2022-11-19T12:14:00.087Z,100859.27
2022-11-19T12:17:03.507Z,100858.29
2022-11-19T12:19:49.402Z,100849.23
2022-11-19T12:22:43.807Z,100855.73
2022-11-19T12:25:23.874Z,100849.85
2022-11-19T12:28:08.999Z,100853.02
2022-11-19T12:30:58.472Z,100848.87
2022-11-19T12:33:41.066Z,100847.46
2022-11-19T12:36:32.096Z,100845.11
2022-11-19T12:39:12.371Z,100842.55
2022-11-19T12:42:09.734Z,100859.04
2022-11-19T12:44:53.982Z,100851.26
2022-11-19T12:48:05.152Z,100856.09
2022-11-19T12:50:56.067Z,100855.24
2022-11-19T12:53:30.029Z,100855.08
2022-11-19T12:56:04.233Z,100849.98
2022-11-19T12:58:49.144Z,100855.87
2022-11-19T13:01:24.733Z,100861.78
2022-11-19T13:04:29.367Z,100868.16
2022-11-19T13:07:05.826Z,100861.06
2022-11-19T13:09:45.027Z,100859.82
2022-11-19T13:12:16.691Z,100860.12
2022-11-19T13:14:54.710Z,100845.83
2022-11-19T13:17:28.426Z,100854.88
2022-11-19T13:20:00.125Z,100850.57
2022-11-19T13:22:34.171Z,100850.99
2022-11-19T13:25:08.297Z,100850.14
2022-11-19T13:27:38.082Z,100857.86
2022-11-19T13:30:08.411Z,100856.39
2022-11-19T13:33:01.170Z,100852.07
2022-11-19T13:35:53.980Z,100846.16
2022-11-19T13:38:52.454Z,100849.13
2022-11-19T13:41:25.805Z,100849.72
2022-11-19T13:44:15.783Z,100848.77
2022-11-19T13:46:49.078Z,100838.41
2022-11-19T13:49:25.695Z,100835.33
2022-11-19T13:51:58.089Z,100831.70
2022-11-19T13:54:30.290Z,100833.01
2022-11-19T13:56:59.400Z,100836.51
2022-11-19T13:59:40.530Z,100837.98
2022-11-19T14:02:17.120Z,100842.13
2022-11-19T14:05:03.063Z,100837.39
2022-11-19T14:07:47.488Z,100840.27
2022-11-19T14:10:27.461Z,100826.63
2022-11-19T14:13:03.971Z,100831.15
2022-11-19T14:16:13.108Z,100826.47
2022-11-19T14:19:03.421Z,100835.56
2022-11-19T14:21:49.702Z,100834.16
2022-11-19T14:24:45.020Z,100839.12
2022-11-19T14:27:27.586Z,100833.80
2022-11-19T14:29:57.438Z,100838.11
2022-11-19T14:32:47.437Z,100846.05
2022-11-19T14:35:29.825Z,100845.47
2022-11-19T14:38:18.035Z,100853.74
2022-11-19T14:40:46.276Z,100853.48
2022-11-19T14:43:32.125Z,100852.43
2022-11-19T14:46:05.718Z,100853.38
2022-11-19T14:48:36.790Z,100864.01
2022-11-19T14:51:08.636Z,100854.03
2022-11-19T14:53:50.551Z,100863.87
2022-11-19T14:56:24.008Z,100861.36
2022-11-19T14:58:54.633Z,100863.62
2022-11-19T15:01:24.232Z,100870.29
2022-11-19T15:04:09.842Z,100863.95
2022-11-19T15:06:38.717Z,100872.34
2022-11-19T15:09:06.830Z,100866.63
2022-11-19T15:11:59.090Z,100869.80
2022-11-19T15:14:38.295Z,100868.23
2022-11-19T15:17:08.468Z,100874.08
2022-11-19T15:19:50.217Z,100862.51
2022-11-19T15:22:32.604Z,100876.63
2022-11-19T15:25:00.239Z,100875.84
2022-11-19T15:27:46.252Z,100876.30
2022-11-19T15:30:24.694Z,100878.85
2022-11-19T15:33:22.244Z,100878.56
2022-11-19T15:36:27.450Z,100879.51
2022-11-19T15:39:35.530Z,100875.52
2022-11-19T15:42:16.809Z,100889.32
2022-11-19T15:45:00.385Z,100892.00
2022-11-19T15:47:43.221Z,100887.26
2022-11-19T15:50:23.420Z,100903.58
2022-11-19T15:53:25.043Z,100895.47
2022-11-19T15:56:01.204Z,100901.84
2022-11-19T15:58:42.313Z,100900.24
2022-11-19T16:01:11.698Z,100905.96
2022-11-19T16:03:40.426Z,100909.30
2022-11-19T16:06:21.834Z,100916.30
2022-11-19T16:08:54.993Z,100921.37
2022-11-19T16:11:43.929Z,100920.41
2022-11-19T16:14:48.657Z,100927.58
2022-11-19T16:17:43.109Z,100913.91
2022-11-19T16:20:11.091Z,100921.56
2022-11-19T16:23:03.401Z,100919.66
2022-11-19T16:25:44.595Z,100918.55
2022-11-19T16:28:15.416Z,100929.84
2022-11-19T16:30:49.182Z,100929.21
2022-11-19T16:33:25.989Z,100933.01
2022-11-19T16:36:10.906Z,100935.42
2022-11-19T16:38:40.406Z,100942.85
2022-11-19T16:41:27.012Z,100936.83
2022-11-19T16:43:54.796Z,100940.33
2022-11-19T16:46:24.157Z,100940.98
2022-11-19T16:48:51.764Z,100936.67
2022-11-19T16:51:38.104Z,100942.52
2022-11-19T16:54:09.107Z,100948.38
2022-11-19T16:56:43.563Z,100955.83
2022-11-19T16:59:20.168Z,100956.48
2022-11-19T17:01:55.133Z,100961.55
2022-11-19T17:04:29.795Z,100967.27
2022-11-19T17:07:01.155Z,100971.98
2022-11-19T17:09:42.732Z,100973.26
2022-11-19T17:12:26.189Z,100977.70
2022-11-19T17:14:59.339Z,100986.11
2022-11-19T17:17:29.988Z,100979.77
2022-11-19T17:19:59.046Z,100983.46
2022-11-19T17:22:36.272Z,100984.34
2022-11-19T17:25:05.439Z,100985.78
2022-11-19T17:27:37.481Z,100988.89
2022-11-19T17:30:09.562Z,100995.10
2022-11-19T17:32:42.659Z,100999.84
2022-11-19T17:35:31.174Z,100996.45
2022-11-19T17:38:12.958Z,101001.91
2022-11-19T17:40:48.059Z,101003.57
2022-11-19T17:43:37.251Z,101000.30
2022-11-19T17:46:05.039Z,101003.18
2022-11-19T17:48:32.743Z,101010.80
2022-11-19T17:51:01.212Z,101011.78
2022-11-19T17:53:28.889Z,101013.64
2022-11-19T17:55:58.656Z,101011.20
2022-11-19T17:58:26.284Z,101007.82
2022-11-19T18:00:53.974Z,101006.52
2022-11-19T18:03:21.656Z,101012.63
2022-11-19T18:05:50.645Z,101014.73
2022-11-19T18:08:18.397Z,101018.95
2022-11-19T18:10:48.359Z,101017.57
2022-11-19T18:13:22.489Z,101032.16
2022-11-19T18:15:50.149Z,101033.98
2022-11-19T18:18:17.794Z,101034.18
2022-11-19T18:20:45.506Z,101041.05
2022-11-19T18:23:14.729Z,101035.33
2022-11-19T18:25:42.811Z,101046.12
2022-11-19T18:28:11.565Z,101037.55
2022-11-19T18:30:39.284Z,101036.93
2022-11-19T18:33:07.069Z,101048.30
2022-11-19T18:35:34.768Z,101050.01
2022-11-19T18:38:02.500Z,101046.80
2022-11-19T18:40:30.234Z,101050.14
2022-11-19T18:43:16.660Z,101055.66
2022-11-19T18:45:44.370Z,101053.08
2022-11-19T18:48:12.007Z,101059.06
2022-11-19T18:50:39.682Z,101062.11
2022-11-19T18:53:07.407Z,101064.13
2022-11-19T18:55:35.075Z,101062.23
2022-11-19T18:58:02.728Z,101068.38
2022-11-19T19:00:30.547Z,101063.16
2022-11-19T19:02:58.173Z,101056.80
2022-11-19T19:05:25.824Z,101063.58
2022-11-19T19:07:53.437Z,101062.95
2022-11-19T19:10:21.160Z,101065.57
2022-11-19T19:12:48.854Z,101062.40
2022-11-19T19:15:16.605Z,101067.34
2022-11-19T19:17:44.204Z,101072.34
2022-11-19T19:20:12.378Z,101069.62
2022-11-19T19:22:40.064Z,101068.02
2022-11-19T19:25:08.040Z,101065.77
2022-11-19T19:27:35.971Z,101068.61
2022-11-19T19:30:03.644Z,101071.91
2022-11-19T19:32:31.377Z,101065.77
2022-11-19T19:34:59.055Z,101075.71
2022-11-19T19:37:26.676Z,101074.11
2022-11-19T19:39:54.607Z,101075.58
2022-11-19T19:42:22.231Z,101079.99
2022-11-19T19:44:49.879Z,101076.49
2022-11-19T19:47:17.543Z,101083.91
2022-11-19T19:49:45.315Z,101082.02
2022-11-19T19:52:12.918Z,101090.39
2022-11-19T19:54:41.986Z,101087.41
2022-11-19T19:57:09.709Z,101087.28
2022-11-19T19:59:37.443Z,101094.12
2022-11-19T20:02:05.199Z,101094.91
2022-11-19T20:04:33.558Z,101095.72
2022-11-19T20:07:01.434Z,101097.91
2022-11-19T20:09:29.389Z,101100.07
2022-11-19T20:11:57.547Z,101095.20
2022-11-19T20:14:25.303Z,101101.34
2022-11-19T20:16:53.045Z,101104.52
2022-11-19T20:19:21.089Z,101101.02
2022-11-19T20:21:49.098Z,101102.30
2022-11-19T20:24:18.482Z,101108.45
2022-11-19T20:26:46.395Z,101106.84
2022-11-19T20:29:15.463Z,101112.98
2022-11-19T20:31:48.135Z,101113.48
2022-11-19T20:34:17.344Z,101121.69
2022-11-19T20:36:45.387Z,101113.74
2022-11-19T20:39:13.905Z,101112.59
2022-11-19T20:42:00.240Z,101117.63
2022-11-19T20:44:27.885Z,101111.74
2022-11-19T20:47:04.214Z,101113.12
2022-11-19T20:49:34.556Z,101118.61
2022-11-19T20:52:03.110Z,101115.44
2022-11-19T20:54:31.172Z,101115.54
2022-11-19T20:56:59.729Z,101114.07
2022-11-19T20:59:28.280Z,101119.66
2022-11-19T21:01:57.348Z,101115.44
2022-11-19T21:04:26.871Z,101119.85
2022-11-19T21:06:55.117Z,101119.98
2022-11-19T21:09:23.149Z,101113.97
2022-11-19T21:11:51.140Z,101116.59
2022-11-19T21:14:18.895Z,101109.33
2022-11-19T21:16:46.681Z,101110.11
2022-11-19T21:19:15.575Z,101103.27
2022-11-19T21:21:44.176Z,101101.34
2022-11-19T21:24:12.046Z,101102.27
2022-11-19T21:26:40.022Z,101102.72
2022-11-19T21:29:07.809Z,101101.25
2022-11-19T21:31:39.946Z,101098.41
2022-11-19T21:34:09.387Z,101101.74
2022-11-19T21:36:38.126Z,101098.41
2022-11-19T21:39:06.968Z,101092.71
2022-11-19T21:41:35.485Z,101099.22
2022-11-19T21:44:04.357Z,101101.05
2022-11-19T21:46:32.114Z,101104.48
2022-11-19T21:48:59.944Z,101099.35
2022-11-19T21:51:27.633Z,101107.00
2022-11-19T21:53:56.464Z,101107.46
2022-11-19T21:56:25.422Z,101108.15
2022-11-19T21:58:53.071Z,101109.85
2022-11-19T22:01:20.792Z,101111.68
2022-11-19T22:03:48.565Z,101108.15
2022-11-19T22:06:16.295Z,101114.75
2022-11-19T22:08:44.676Z,101111.41
2022-11-19T22:11:32.396Z,101108.67
2022-11-19T22:14:00.277Z,101112.01
2022-11-19T22:16:28.566Z,101106.88
2022-11-19T22:18:56.298Z,101110.27
2022-11-19T22:21:24.369Z,101112.76
2022-11-19T22:23:53.775Z,101110.83
2022-11-19T22:26:21.548Z,101103.54
2022-11-19T22:28:49.245Z,101113.67
2022-11-19T22:31:16.941Z,101112.98
2022-11-19T22:33:44.721Z,101119.10
2022-11-19T22:36:12.637Z,101111.38
2022-11-19T22:38:40.801Z,101121.16
2022-11-19T22:41:17.617Z,101121.95
2022-11-19T22:43:45.415Z,101115.93
2022-11-19T22:46:14.059Z,101118.87
2022-11-19T22:48:42.291Z,101120.12
2022-11-19T22:51:32.423Z,101128.29
2022-11-19T22:54:00.035Z,101122.27
2022-11-19T22:56:31.362Z,101135.59
2022-11-19T22:58:59.386Z,101140.09
2022-11-19T23:01:32.847Z,101135.68
2022-11-19T23:04:03.162Z,101136.92
2022-11-19T23:06:30.814Z,101140.20
2022-11-19T23:08:58.882Z,101139.77
2022-11-19T23:11:45.024Z,101140.09
2022-11-19T23:14:15.564Z,101143.76
2022-11-19T23:16:44.209Z,101138.16
2022-11-19T23:19:13.439Z,101140.20
2022-11-19T23:21:42.295Z,101141.11
2022-11-19T23:24:11.394Z,101133.13
2022-11-19T23:26:39.313Z,101144.48
2022-11-19T23:29:07.597Z,101145.39
2022-11-19T23:31:38.355Z,101148.23
2022-11-19T23:34:06.333Z,101148.70
2022-11-19T23:36:37.288Z,101143.92
2022-11-19T23:39:06.493Z,101141.08
2022-11-19T23:41:35.187Z,101151.31
2022-11-19T23:44:03.321Z,101147.42
2022-11-19T23:46:35.740Z,101145.72
2022-11-19T23:49:04.884Z,101144.12
2022-11-19T23:51:35.425Z,101151.02
2022-11-19T23:54:03.653Z,101151.84
2022-11-19T23:56:33.608Z,101148.56
2022-11-19T23:59:02.925Z,101155.50
